WetterOnline ( https://www.wetteronline.de )

Wetter aktuell Bohumín

Aktuelles Wetter: Ostrava (260m)

6-stündlich | Neueste Meldungen
Ortszeit Temperatur Wetter
So, 26.01. 13:00 -0.9° C bedeckt
So, 26.01. 7:00 -1.4° C bedeckt
So, 26.01. 1:00 -1.5° C bedeckt
Sa, 25.01. 19:00 -1.7° C bedeckt
Sa, 25.01. 13:00 -1.2° C bedeckt
Sa, 25.01. 7:00 -1.8° C bedeckt
Sa, 25.01. 1:00 -1.4° C bedeckt
Fr, 24.01. 19:00 -1.2° C bedeckt
Ortszeit Temperatur Wetter
So, 26.01. 13:00 -0.9° C bedeckt
So, 26.01. 12:51 -1° C bedeckt
So, 26.01. 12:30 -1° C bedeckt
So, 26.01. 12:00 -1.1° C bedeckt
So, 26.01. 11:30 -1° C bedeckt
So, 26.01. 11:00 -1.1° C bedeckt
So, 26.01. 10:30 -1° C bedeckt
So, 26.01. 10:00 -1.4° C bedeckt
So, 26.01. 9:30 -1° C bedeckt
Ortszeit Relative Feuchte Sichtweite
So, 26.01. 13:00 86% 7 km
So, 26.01. 7:00 92% 6 km
So, 26.01. 1:00 93% 6 km
Sa, 25.01. 19:00 89% 6 km
Sa, 25.01. 13:00 86% 6 km
Sa, 25.01. 7:00 88% 7 km
Sa, 25.01. 1:00 86% 10 km
Fr, 24.01. 19:00 84% 10 km
Ortszeit Relative Feuchte Sichtweite
So, 26.01. 13:00 86% 7 km
So, 26.01. 12:51 86% 7 km
So, 26.01. 12:30 86% 6 km
So, 26.01. 12:00 88% 6 km
So, 26.01. 11:30 86% 6 km
So, 26.01. 11:00 89% 6 km
So, 26.01. 10:30 86% 6 km
So, 26.01. 10:00 92% 6 km
So, 26.01. 9:30 86% 6 km
Ortszeit Niederschlagsmenge Niederschlagsart
So, 26.01. 13:00 0.0 l/m2 in 6 Std. -
So, 26.01. 7:00 0.0 l/m2 in 12 Std. -
So, 26.01. 1:00 0.0 l/m2 in 6 Std. -
Sa, 25.01. 19:00 0.0 l/m2 in 12 Std. -
Sa, 25.01. 13:00 0.0 l/m2 in 6 Std. -
Sa, 25.01. 7:00 0.0 l/m2 in 12 Std. -
Sa, 25.01. 1:00 0.0 l/m2 in 6 Std. -
Fr, 24.01. 19:00 0.0 l/m2 in 12 Std. -
Ortszeit Niederschlagsmenge Niederschlagsart
So, 26.01. 13:00 0.0 l/m2 in 1 Std. -
So, 26.01. 12:51 keine Meldung -
So, 26.01. 12:30 keine Meldung -
So, 26.01. 12:00 0.0 l/m2 in 1 Std. -
So, 26.01. 11:30 keine Meldung -
So, 26.01. 11:00 0.0 l/m2 in 1 Std. -
So, 26.01. 10:30 keine Meldung -
So, 26.01. 10:00 0.0 l/m2 in 1 Std. -
So, 26.01. 9:30 keine Meldung -
Ortszeit Stärke Spitze Richtung
km/h Bft. km/h Grad Sektor
So, 26.01. 13:00 36 5 47 240° SW
So, 26.01. 7:00 25 4 40 220° SW
So, 26.01. 1:00 22 4 - 230° SW
Sa, 25.01. 19:00 22 4 43 230° SW
Sa, 25.01. 13:00 25 4 40 220° SW
Sa, 25.01. 7:00 25 4 40 230° SW
Sa, 25.01. 1:00 29 5 43 220° SW
Fr, 24.01. 19:00 32 5 54 220° SW
Ortszeit Stärke Spitze Richtung
km/h Bft. km/h Grad Sektor
So, 26.01. 13:00 36 5 47 240° SW
So, 26.01. 12:51 33 5 - 230° SW
So, 26.01. 12:30 35 5 - 230° SW
So, 26.01. 12:00 36 5 43 230° SW
So, 26.01. 11:30 33 5 - 220° SW
So, 26.01. 11:00 32 5 40 230° SW
So, 26.01. 10:30 31 5 - 220° SW
So, 26.01. 10:00 32 5 40 220° SW
So, 26.01. 9:30 26 4 - 230° SW
Ortszeit Untergrenze Bedeckung Gattung
total tief tief mittel hoch
So, 26.01. 13:00 300 m 8/8 8/8 St - -
So, 26.01. 7:00 180 m 8/8 8/8 St - -
So, 26.01. 1:00 180 m 8/8 8/8 St - -
Sa, 25.01. 19:00 270 m 8/8 8/8 St - -
Sa, 25.01. 13:00 270 m 8/8 8/8 St - -
Sa, 25.01. 7:00 270 m 8/8 8/8 St - -
Sa, 25.01. 1:00 330 m 8/8 8/8 St - -
Fr, 24.01. 19:00 390 m 8/8 8/8 St - -
Ortszeit Bedeckungsgrad in Achtel und Wolkenuntergrenze
So, 26.01. 13:00 8(300m)
So, 26.01. 12:51 8(300m)
So, 26.01. 12:30 8(210m)
So, 26.01. 12:00 8(180m)
So, 26.01. 11:30 8(180m)
So, 26.01. 11:00 8(180m)
So, 26.01. 10:30 8(180m)
So, 26.01. 10:00 8(180m)
So, 26.01. 9:30 8(180m)
Ortszeit Luftdruck NN (hPa) Tendenz (hPa in 3 Std.)
So, 26.01. 13:00 1022 - 1,2
So, 26.01. 7:00 1023 + 0,1
So, 26.01. 1:00 1024 - 0,8
Sa, 25.01. 19:00 1024 + 1,3
Sa, 25.01. 13:00 1024 - 0,6
Sa, 25.01. 7:00 1024 0,0
Sa, 25.01. 1:00 1025 + 0,4
Fr, 24.01. 19:00 1025 + 0,7
Ortszeit Luftdruck NN (hPa) Tendenz (hPa in 3 Std.)
So, 26.01. 13:00 1022 - 1,2
So, 26.01. 12:51 1020 keine Meldung
So, 26.01. 12:30 1020 keine Meldung
So, 26.01. 12:00 1023 - 0,5
So, 26.01. 11:30 1021 keine Meldung
So, 26.01. 11:00 1023 + 0,3
So, 26.01. 10:30 1021 keine Meldung
So, 26.01. 10:00 1024 + 0,5
So, 26.01. 9:30 1021 keine Meldung
Ortszeit Schneehöhe (cm)
So, 26.01. 13:00 -
So, 26.01. 7:00 -
So, 26.01. 1:00 -
Sa, 25.01. 19:00 0
Sa, 25.01. 13:00 -
Sa, 25.01. 7:00 -
Sa, 25.01. 1:00 -
Fr, 24.01. 19:00 -
Ortszeit Schneehöhe (cm)
So, 26.01. 13:00 -
So, 26.01. 12:51 -
So, 26.01. 12:30 -
So, 26.01. 12:00 -
So, 26.01. 11:30 -
So, 26.01. 11:00 -
So, 26.01. 10:30 -
So, 26.01. 10:00 -
So, 26.01. 9:30 -
Link zu dieser Seite / Seite empfehlen

Das Wetter in ...